createdAt,value
2023-04-13T00:00:15.167Z,1.10
2023-04-13T00:05:17.094Z,0.93
2023-04-13T00:10:19.185Z,0.90
2023-04-13T00:15:21.845Z,0.90
2023-04-13T00:20:23.467Z,1.00
2023-04-13T00:25:25.180Z,1.10
2023-04-13T00:30:26.728Z,1.20
2023-04-13T00:35:28.444Z,0.93
2023-04-13T00:40:31.592Z,1.00
2023-04-13T00:45:37.906Z,0.93
2023-04-13T00:50:40.861Z,0.80
2023-04-13T00:55:43.967Z,0.90
2023-04-13T01:00:45.562Z,0.87
2023-04-13T01:05:54.931Z,0.80
2023-04-13T01:11:07.609Z,0.90
2023-04-13T01:16:32.843Z,0.90
2023-04-13T01:21:37.125Z,0.90
2023-04-13T01:27:06.614Z,0.80
2023-04-13T01:32:09.040Z,0.90
2023-04-13T01:37:13.858Z,0.83
2023-04-13T01:42:16.278Z,1.07
2023-04-13T01:47:20.531Z,0.87
2023-04-13T01:52:33.324Z,0.90
2023-04-13T01:57:37.533Z,1.10
2023-04-13T02:02:42.618Z,1.00
2023-04-13T02:07:44.854Z,0.90
2023-04-13T02:12:47.832Z,0.90
2023-04-13T02:17:49.593Z,0.90
2023-04-13T02:22:52.247Z,0.80
2023-04-13T02:27:54.223Z,0.80
2023-04-13T02:32:56.074Z,0.80
2023-04-13T02:37:58.291Z,0.80
2023-04-13T02:43:00.080Z,0.80
2023-04-13T02:48:04.477Z,0.77
2023-04-13T02:53:07.774Z,1.00
2023-04-13T02:58:12.263Z,1.10
2023-04-13T03:03:17.130Z,0.87
2023-04-13T03:08:21.506Z,1.07
2023-04-13T03:13:34.288Z,0.90
2023-04-13T03:18:36.429Z,1.00
2023-04-13T03:23:38.642Z,1.03
2023-04-13T03:28:47.789Z,1.00
2023-04-13T03:33:50.987Z,0.90
2023-04-13T03:38:52.850Z,1.00
2023-04-13T03:43:55.640Z,1.10
2023-04-13T03:48:59.702Z,1.03
2023-04-13T03:54:03.815Z,0.90
2023-04-13T03:59:06.628Z,1.10
2023-04-13T04:04:08.374Z,1.00
2023-04-13T04:09:11.834Z,0.90
2023-04-13T04:14:22.446Z,0.90
2023-04-13T04:19:45.140Z,0.90
2023-04-13T04:24:46.765Z,0.80
2023-04-13T04:29:49.572Z,0.90
2023-04-13T04:35:00.376Z,1.00
2023-04-13T04:40:05.269Z,1.00
2023-04-13T04:45:07.930Z,1.30
2023-04-13T04:50:17.914Z,0.90
2023-04-13T04:55:23.571Z,0.90
2023-04-13T05:00:26.581Z,0.70
2023-04-13T05:05:39.163Z,0.80
2023-04-13T05:10:46.291Z,0.80
2023-04-13T05:15:48.128Z,1.17
2023-04-13T05:20:52.337Z,0.90
2023-04-13T05:25:54.303Z,0.70
2023-04-13T05:31:03.827Z,0.70
2023-04-13T05:36:08.311Z,0.97
2023-04-13T05:41:11.746Z,0.90
2023-04-13T05:46:15.668Z,0.80
2023-04-13T05:51:18.182Z,0.70
2023-04-13T05:56:21.014Z,0.80
2023-04-13T06:01:24.347Z,0.90
2023-04-13T06:06:27.669Z,0.73
2023-04-13T06:11:29.314Z,1.00
2023-04-13T06:16:31.188Z,0.80
2023-04-13T06:21:33.437Z,0.80
2023-04-13T06:26:35.188Z,0.70
2023-04-13T06:31:37.355Z,0.90
2023-04-13T06:36:45.174Z,0.70
2023-04-13T06:41:50.641Z,0.80
2023-04-13T06:47:10.924Z,0.70
2023-04-13T06:52:12.765Z,0.70
2023-04-13T06:57:14.700Z,0.70
2023-04-13T07:02:16.438Z,0.80
2023-04-13T07:07:18.671Z,0.70
2023-04-13T07:12:20.504Z,0.60
2023-04-13T07:17:22.239Z,0.60
2023-04-13T07:22:25.203Z,0.80
2023-04-13T07:27:28.605Z,0.70
2023-04-13T07:32:31.451Z,0.90
2023-04-13T07:37:33.891Z,0.70
2023-04-13T07:42:36.221Z,0.60
2023-04-13T07:47:38.045Z,0.40
2023-04-13T07:52:43.020Z,0.40
2023-04-13T07:57:44.790Z,0.40
2023-04-13T08:02:47.040Z,0.60
2023-04-13T08:07:53.739Z,0.40
2023-04-13T08:12:55.443Z,0.50
2023-04-13T08:17:58.417Z,0.60
2023-04-13T08:23:01.214Z,0.60
2023-04-13T08:28:03.643Z,0.50
2023-04-13T08:33:05.392Z,0.73
2023-04-13T08:38:07.295Z,0.53
2023-04-13T08:43:08.984Z,0.93
2023-04-13T08:48:13.773Z,0.50
2023-04-13T08:53:18.205Z,0.80
2023-04-13T08:58:22.599Z,0.53
2023-04-13T09:03:25.807Z,0.50
2023-04-13T09:08:34.682Z,0.50
2023-04-13T09:13:38.337Z,0.70
2023-04-13T09:18:51.837Z,0.83
2023-04-13T09:23:57.866Z,0.50
2023-04-13T09:28:59.705Z,0.40
2023-04-13T09:34:01.852Z,0.80
2023-04-13T09:39:05.222Z,0.50
2023-04-13T09:44:18.768Z,0.50
2023-04-13T09:49:20.399Z,0.77
2023-04-13T09:54:22.764Z,0.70
2023-04-13T09:59:24.745Z,0.63
2023-04-13T10:04:26.714Z,0.40
2023-04-13T10:09:28.855Z,0.30
2023-04-13T10:14:33.047Z,0.43
2023-04-13T10:19:46.383Z,0.53
2023-04-13T10:24:49.044Z,0.40
2023-04-13T10:29:50.872Z,0.60
2023-04-13T10:34:53.616Z,0.60
2023-04-13T10:40:06.540Z,0.50
2023-04-13T10:45:23.998Z,0.80
2023-04-13T10:50:27.691Z,0.93
2023-04-13T10:55:29.661Z,0.50
2023-04-13T11:00:45.469Z,0.90
2023-04-13T11:05:57.686Z,0.70
2023-04-13T11:10:59.339Z,1.03
2023-04-13T11:16:02.879Z,0.90
2023-04-13T11:21:08.581Z,1.00
2023-04-13T11:26:11.065Z,0.70
2023-04-13T11:31:12.884Z,0.80
2023-04-13T11:36:14.754Z,0.73
2023-04-13T11:41:17.495Z,0.60
2023-04-13T11:46:25.656Z,0.77
2023-04-13T11:51:27.568Z,0.73
2023-04-13T11:56:30.939Z,0.90
2023-04-13T12:01:34.508Z,0.77
2023-04-13T12:06:42.168Z,0.80
2023-04-13T12:11:49.728Z,1.07
2023-04-13T12:21:57.803Z,0.93
2023-04-13T12:32:17.044Z,0.80
2023-04-13T12:37:19.547Z,0.70
2023-04-13T12:42:21.131Z,0.90
2023-04-13T12:47:24.544Z,0.97
2023-04-13T12:52:28.622Z,0.83
2023-04-13T12:57:30.340Z,0.60
2023-04-13T13:02:33.625Z,1.10
2023-04-13T13:07:35.583Z,1.17
2023-04-13T13:12:37.243Z,0.70
2023-04-13T13:17:43.188Z,0.70
2023-04-13T13:22:44.825Z,0.80
2023-04-13T13:32:51.411Z,0.70
2023-04-13T13:37:53.170Z,0.80
2023-04-13T13:42:55.133Z,1.43
2023-04-13T13:47:58.074Z,0.87
2023-04-13T13:53:16.493Z,0.90
2023-04-13T13:58:19.513Z,0.77
2023-04-13T14:03:21.826Z,0.77
2023-04-13T14:08:23.474Z,0.70
2023-04-13T14:13:25.402Z,0.70
2023-04-13T14:18:27.081Z,1.23
2023-04-13T14:23:28.724Z,0.67
2023-04-13T14:28:30.498Z,0.63
2023-04-13T14:33:32.143Z,0.70
2023-04-13T14:38:34.763Z,0.70
2023-04-13T14:43:36.328Z,0.70
2023-04-13T14:48:37.927Z,0.70
2023-04-13T14:53:39.543Z,0.60
2023-04-13T14:58:41.157Z,0.80
2023-04-13T15:03:42.879Z,0.77
2023-04-13T15:08:45.376Z,0.90
2023-04-13T15:13:46.958Z,0.70
2023-04-13T15:18:48.578Z,1.47
2023-04-13T15:23:50.484Z,0.70
2023-04-13T15:28:52.604Z,0.80
2023-04-13T15:33:54.937Z,0.87
2023-04-13T15:38:56.991Z,1.10
2023-04-13T15:44:00.277Z,0.80
2023-04-13T15:49:02.221Z,0.60
2023-04-13T15:54:04.142Z,0.73
2023-04-13T15:59:06.465Z,1.13
2023-04-13T16:04:08.074Z,0.80
2023-04-13T16:09:10.493Z,0.63
2023-04-13T16:14:12.554Z,0.73
2023-04-13T16:19:18.591Z,0.60
2023-04-13T16:24:21.279Z,0.57
2023-04-13T16:29:24.905Z,0.70
2023-04-13T16:34:27.939Z,0.80
2023-04-13T16:39:29.503Z,0.80
2023-04-13T16:44:31.175Z,0.60
2023-04-13T16:49:33.511Z,0.90
2023-04-13T16:54:35.126Z,0.60
2023-04-13T16:59:36.737Z,0.50
2023-04-13T17:04:38.461Z,0.70
2023-04-13T17:09:40.443Z,0.80
2023-04-13T17:14:43.271Z,0.80
2023-04-13T17:19:44.924Z,0.80
2023-04-13T17:24:46.933Z,0.87
2023-04-13T17:29:50.525Z,0.80
2023-04-13T17:34:52.047Z,0.87
2023-04-13T17:39:53.724Z,0.60
2023-04-13T17:44:55.433Z,0.87
2023-04-13T17:49:57.433Z,0.80
2023-04-13T17:54:59.833Z,0.60
2023-04-13T18:00:02.034Z,0.83
2023-04-13T18:05:07.279Z,1.00
2023-04-13T18:10:09.467Z,0.70
2023-04-13T18:15:11.438Z,0.93
2023-04-13T18:20:13.288Z,0.90
2023-04-13T18:25:14.911Z,1.53
2023-04-13T18:30:16.807Z,0.97
2023-04-13T18:35:18.935Z,0.77
2023-04-13T18:40:20.611Z,0.90
2023-04-13T18:45:22.811Z,1.20
2023-04-13T18:50:24.527Z,1.17
2023-04-13T18:55:26.703Z,1.70
2023-04-13T19:00:28.258Z,1.50
2023-04-13T19:05:31.991Z,1.80
2023-04-13T19:10:33.759Z,2.03
2023-04-13T19:15:35.861Z,2.10
2023-04-13T19:20:38.045Z,1.60
2023-04-13T19:25:39.609Z,1.20
2023-04-13T19:30:41.348Z,0.90
2023-04-13T19:35:43.089Z,0.80
2023-04-13T19:40:44.824Z,0.90
2023-04-13T19:45:46.471Z,0.83
2023-04-13T19:50:48.778Z,1.13
2023-04-13T19:55:51.239Z,1.10
2023-04-13T20:00:52.888Z,0.90
2023-04-13T20:05:58.592Z,0.73
2023-04-13T20:11:00.352Z,1.00
2023-04-13T20:16:02.912Z,1.67
2023-04-13T20:21:06.467Z,0.90
2023-04-13T20:26:08.071Z,1.10
2023-04-13T20:31:09.816Z,1.00
2023-04-13T20:36:12.085Z,1.03
2023-04-13T20:41:14.205Z,0.97
2023-04-13T20:46:16.952Z,1.00
2023-04-13T20:51:19.651Z,0.90
2023-04-13T20:56:24.409Z,0.87
2023-04-13T21:01:26.065Z,1.00
2023-04-13T21:06:29.927Z,0.90
2023-04-13T21:11:31.799Z,1.00
2023-04-13T21:16:33.511Z,0.80
2023-04-13T21:21:36.113Z,0.90
2023-04-13T21:26:37.885Z,0.93
2023-04-13T21:31:39.763Z,1.40
2023-04-13T21:37:13.490Z,1.00
2023-04-13T21:42:16.824Z,1.00
2023-04-13T21:47:18.634Z,1.07
2023-04-13T21:52:20.722Z,1.13
2023-04-13T21:57:22.290Z,1.20
2023-04-13T22:02:24.526Z,0.97
2023-04-13T22:07:39.028Z,1.30
2023-04-13T22:12:43.891Z,1.10
2023-04-13T22:17:45.933Z,1.40
2023-04-13T22:22:47.630Z,1.23
2023-04-13T22:27:49.619Z,1.30
2023-04-13T22:32:52.332Z,1.60
2023-04-13T22:37:53.988Z,1.33
2023-04-13T22:42:55.642Z,1.43
2023-04-13T22:47:58.435Z,1.63
2023-04-13T22:53:00.362Z,1.70
2023-04-13T22:58:02.106Z,1.50
2023-04-13T23:03:04.505Z,1.60
2023-04-13T23:08:06.462Z,1.43
2023-04-13T23:13:08.189Z,1.90
2023-04-13T23:18:09.943Z,1.40
2023-04-13T23:23:12.299Z,2.00
2023-04-13T23:28:13.907Z,1.40
2023-04-13T23:33:17.283Z,1.30
2023-04-13T23:38:18.904Z,1.47
2023-04-13T23:43:21.452Z,1.50
2023-04-13T23:48:23.423Z,1.40
2023-04-13T23:53:25.185Z,1.50
2023-04-13T23:58:27.298Z,1.47
